Terminal Aerodrome Forecast
Issued by NWS Paducah, KY

Home | Current Version | Previous Version | Text Only | Print | Product List | Glossary On
Versions: 1 2 3 4 5 6 7 8 9 10 11 12 13 14 15 16 17 18 19 20 21 22
000
FTUS43 KPAH 040807 AAA
TAFEVV
TAF AMD
KEVV 040807Z 0408/0506 01005KT 2SM -RA BR OVC005
      TEMPO 0408/0412 3/4SM RA BR SCT005 OVC015
     FM041200 34010KT 3SM -PLSN BR OVC010
     FM041600 35012G18KT 2SM -SN BR OVC015
     FM050200 36012G17KT 4SM -SN BR OVC020=

USA.gov is the U.S. government's official web portal to all federal, state and local government web resources and services.